createdAt,value
2019-05-06T00:00:59.236Z,100953.61
2019-05-06T00:03:29.804Z,100950.10
2019-05-06T00:06:03.936Z,100955.77
2019-05-06T00:08:37.514Z,100956.20
2019-05-06T00:11:10.897Z,100955.77
2019-05-06T00:13:45.459Z,100957.88
2019-05-06T00:16:18.865Z,100953.86
2019-05-06T00:18:54.086Z,100952.08
2019-05-06T00:21:27.471Z,100949.90
2019-05-06T00:24:01.296Z,100955.92
2019-05-06T00:26:46.331Z,100944.97
2019-05-06T00:29:24.270Z,100946.63
2019-05-06T00:31:57.662Z,100950.48
2019-05-06T00:34:31.161Z,100951.33
2019-05-06T00:37:04.594Z,100947.38
2019-05-06T00:40:00.443Z,100950.30
2019-05-06T00:42:35.740Z,100944.17
2019-05-06T00:45:10.840Z,100944.14
2019-05-06T00:47:44.454Z,100947.56
2019-05-06T00:50:17.838Z,100945.70
2019-05-06T00:52:53.834Z,100944.86
2019-05-06T00:55:26.937Z,100955.28
2019-05-06T00:58:00.380Z,100950.09
2019-05-06T01:00:36.591Z,100948.80
2019-05-06T01:03:10.083Z,100959.72
2019-05-06T01:05:44.417Z,100952.36
2019-05-06T01:08:18.419Z,100949.36
2019-05-06T01:10:51.777Z,100957.62
2019-05-06T01:13:35.959Z,100955.47
2019-05-06T01:16:10.334Z,100959.80
2019-05-06T01:18:43.751Z,100956.31
2019-05-06T01:21:17.425Z,100954.97
2019-05-06T01:23:50.750Z,100958.44
2019-05-06T01:26:24.394Z,100958.89
2019-05-06T01:28:57.840Z,100955.80
2019-05-06T01:31:40.581Z,100958.00
2019-05-06T01:34:06.377Z,100958.80
2019-05-06T01:36:39.815Z,100955.72
2019-05-06T01:39:35.104Z,100958.30
2019-05-06T01:42:27.677Z,100956.50
2019-05-06T01:45:00.988Z,100954.75
2019-05-06T01:47:34.651Z,100956.40
2019-05-06T01:50:08.527Z,100955.45
2019-05-06T01:52:41.888Z,100956.71
2019-05-06T01:55:15.431Z,100959.78
2019-05-06T01:57:48.790Z,100961.08
2019-05-06T02:00:23.666Z,100965.35
2019-05-06T02:02:57.127Z,100961.39
2019-05-06T02:05:30.498Z,100956.67
2019-05-06T02:08:04.058Z,100958.78
2019-05-06T02:10:38.278Z,100957.89
2019-05-06T02:13:11.574Z,100954.41
2019-05-06T02:15:45.009Z,100957.03
2019-05-06T02:18:20.830Z,100955.72
2019-05-06T02:20:57.478Z,100957.05
2019-05-06T02:23:33.771Z,100954.83
2019-05-06T02:26:07.392Z,100952.66
2019-05-06T02:28:43.607Z,100953.04
2019-05-06T02:31:35.325Z,100955.63
2019-05-06T02:34:20.692Z,100950.84
2019-05-06T02:37:07.917Z,100949.98
2019-05-06T02:39:43.792Z,100950.88
2019-05-06T02:42:16.360Z,100946.48
2019-05-06T02:44:49.944Z,100946.97
2019-05-06T02:47:53.572Z,100947.80
2019-05-06T02:50:26.949Z,100952.63
2019-05-06T02:53:02.705Z,100946.09
2019-05-06T02:55:36.222Z,100952.17
2019-05-06T02:58:09.659Z,100946.48
2019-05-06T03:00:43.313Z,100953.32
2019-05-06T03:03:16.801Z,100951.61
2019-05-06T03:05:53.052Z,100952.02
2019-05-06T03:08:25.161Z,100956.74
2019-05-06T03:10:58.670Z,100954.63
2019-05-06T03:13:34.212Z,100952.86
2019-05-06T03:16:08.211Z,100955.92
2019-05-06T03:18:43.365Z,100956.82
2019-05-06T03:21:47.610Z,100961.63
2019-05-06T03:24:48.835Z,100962.11
2019-05-06T03:27:23.486Z,100966.88
2019-05-06T03:29:59.282Z,100962.03
2019-05-06T03:32:41.124Z,100965.48
2019-05-06T03:35:27.268Z,100968.92
2019-05-06T03:37:44.056Z,100962.44
2019-05-06T03:40:17.678Z,100965.05
2019-05-06T03:42:53.976Z,100960.21
2019-05-06T03:45:44.878Z,100967.24
2019-05-06T03:48:24.008Z,100965.56
2019-05-06T03:50:57.597Z,100969.05
2019-05-06T03:53:33.365Z,100965.97
2019-05-06T03:56:08.037Z,100970.36
2019-05-06T03:58:43.512Z,100969.08
2019-05-06T04:01:18.456Z,100968.64
2019-05-06T04:03:56.501Z,100965.94
2019-05-06T04:06:26.815Z,100965.09
2019-05-06T04:09:03.352Z,100971.66
2019-05-06T04:11:38.172Z,100967.38
2019-05-06T04:14:13.989Z,100974.75
2019-05-06T04:17:07.433Z,100976.09
2019-05-06T04:19:44.238Z,100983.95
2019-05-06T04:22:26.207Z,100977.47
2019-05-06T04:25:23.153Z,100978.33
2019-05-06T04:27:57.992Z,100972.72
2019-05-06T04:30:33.405Z,100973.17
2019-05-06T04:33:06.717Z,100979.27
2019-05-06T04:35:42.800Z,100983.28
2019-05-06T04:38:15.339Z,100973.80
2019-05-06T04:40:48.954Z,100975.16
2019-05-06T04:43:43.588Z,100977.86
2019-05-06T04:46:16.905Z,100976.16
2019-05-06T04:48:50.623Z,100976.30
2019-05-06T04:51:36.859Z,100975.48
2019-05-06T04:54:18.345Z,100980.77
2019-05-06T04:56:53.639Z,100976.92
2019-05-06T04:59:26.776Z,100982.64
2019-05-06T05:02:02.693Z,100985.30
2019-05-06T05:04:36.981Z,100983.64
2019-05-06T05:07:12.774Z,100988.89
2019-05-06T05:09:45.680Z,100982.41
2019-05-06T05:12:27.452Z,100973.80
2019-05-06T05:15:19.896Z,100979.52
2019-05-06T05:18:13.014Z,100979.58
2019-05-06T05:20:46.938Z,100988.83
2019-05-06T05:23:22.804Z,100981.95
2019-05-06T05:25:55.876Z,100989.43
2019-05-06T05:28:31.573Z,100982.48
2019-05-06T05:31:04.960Z,100985.13
2019-05-06T05:33:38.447Z,100980.30
2019-05-06T05:36:12.356Z,100976.75
2019-05-06T05:38:45.742Z,100979.73
2019-05-06T05:41:19.284Z,100977.91
2019-05-06T05:43:56.983Z,100979.92
2019-05-06T05:46:30.539Z,100975.84
2019-05-06T05:49:28.652Z,100982.22
2019-05-06T05:52:03.410Z,100981.54
2019-05-06T05:54:37.521Z,100972.58
2019-05-06T05:57:11.904Z,100978.54
2019-05-06T05:59:45.453Z,100981.38
2019-05-06T06:02:18.893Z,100977.70
2019-05-06T06:04:57.284Z,100984.44
2019-05-06T06:07:27.738Z,100982.95
2019-05-06T06:10:16.266Z,100974.40
2019-05-06T06:12:49.635Z,100983.31
2019-05-06T06:15:42.378Z,100983.89
2019-05-06T06:18:23.509Z,100981.55
2019-05-06T06:21:17.927Z,100985.68
2019-05-06T06:23:43.042Z,100979.63
2019-05-06T06:26:16.520Z,100979.13
2019-05-06T06:28:52.291Z,100973.03
2019-05-06T06:31:33.254Z,100972.73
2019-05-06T06:34:13.129Z,100971.44
2019-05-06T06:37:05.261Z,100975.47
2019-05-06T06:39:42.334Z,100975.73
2019-05-06T06:42:17.252Z,100970.67
2019-05-06T06:44:52.147Z,100974.25
2019-05-06T06:47:25.723Z,100978.48
2019-05-06T06:49:59.086Z,100971.56
2019-05-06T06:52:32.803Z,100970.87
2019-05-06T06:55:06.380Z,100972.67
2019-05-06T06:57:58.701Z,100967.83
2019-05-06T07:00:42.490Z,100972.27
2019-05-06T07:03:21.838Z,100973.34
2019-05-06T07:06:08.080Z,100972.46
2019-05-06T07:08:42.624Z,100969.38
2019-05-06T07:11:15.966Z,100969.59
2019-05-06T07:13:57.011Z,100962.11
2019-05-06T07:16:32.719Z,100975.41
2019-05-06T07:19:05.492Z,100973.17
2019-05-06T07:21:49.307Z,100968.20
2019-05-06T07:24:22.940Z,100967.13
2019-05-06T07:27:05.829Z,100964.77
2019-05-06T07:29:39.112Z,100965.02
2019-05-06T07:32:12.481Z,100974.61
2019-05-06T07:34:46.076Z,100965.41
2019-05-06T07:37:19.336Z,100965.44
2019-05-06T07:39:53.106Z,100962.67
2019-05-06T07:42:50.039Z,100960.34
2019-05-06T07:45:32.956Z,100966.50
2019-05-06T07:48:08.465Z,100964.87
2019-05-06T07:50:42.524Z,100971.92
2019-05-06T07:53:15.910Z,100964.80
2019-05-06T07:55:52.443Z,100971.49
2019-05-06T07:58:25.397Z,100971.34
2019-05-06T08:00:58.678Z,100970.24
2019-05-06T08:03:33.137Z,100968.41
2019-05-06T08:06:08.146Z,100975.04
2019-05-06T08:08:43.293Z,100968.80
2019-05-06T08:11:17.326Z,100965.45
2019-05-06T08:13:52.619Z,100969.11
2019-05-06T08:16:27.066Z,100974.08
2019-05-06T08:19:02.655Z,100968.38
2019-05-06T08:21:38.101Z,100960.02
2019-05-06T08:24:12.032Z,100967.58
2019-05-06T08:26:45.597Z,100965.27
2019-05-06T08:29:19.387Z,100967.48
2019-05-06T08:31:52.788Z,100959.41
2019-05-06T08:34:25.996Z,100962.98
2019-05-06T08:37:18.079Z,100960.41
2019-05-06T08:39:52.682Z,100966.61
2019-05-06T08:42:26.222Z,100970.27
2019-05-06T08:45:02.087Z,100964.29
2019-05-06T08:47:34.590Z,100961.49
2019-05-06T08:50:25.892Z,100961.58
2019-05-06T08:53:13.991Z,100967.80
2019-05-06T08:55:47.510Z,100964.42
2019-05-06T08:58:22.289Z,100966.19
2019-05-06T09:01:03.153Z,100959.41
2019-05-06T09:03:36.284Z,100956.84
2019-05-06T09:06:23.617Z,100960.02
2019-05-06T09:08:44.409Z,100959.83
2019-05-06T09:11:17.506Z,100946.23
2019-05-06T09:13:52.113Z,100939.93
2019-05-06T09:16:25.490Z,100945.42
2019-05-06T09:18:58.604Z,100951.64
2019-05-06T09:21:33.511Z,100944.48
2019-05-06T09:24:06.848Z,100949.95
2019-05-06T09:26:47.275Z,100950.61
2019-05-06T09:29:45.190Z,100949.09
2019-05-06T09:32:22.710Z,100947.55
2019-05-06T09:34:59.070Z,100942.77
2019-05-06T09:37:33.120Z,100948.81
2019-05-06T09:40:07.844Z,100947.70
2019-05-06T09:42:42.593Z,100951.45
2019-05-06T09:45:16.201Z,100952.20
2019-05-06T09:48:14.038Z,100948.95
2019-05-06T09:50:49.052Z,100955.43
2019-05-06T09:53:28.363Z,100960.83
2019-05-06T09:56:17.850Z,100954.75
2019-05-06T09:58:52.958Z,100959.91
2019-05-06T10:01:25.971Z,100962.77
2019-05-06T10:04:03.249Z,100954.33
2019-05-06T10:06:36.753Z,100952.11
2019-05-06T10:09:15.731Z,100943.73
2019-05-06T10:11:48.699Z,100946.38
2019-05-06T10:14:23.394Z,100948.98
2019-05-06T10:16:57.065Z,100949.20
2019-05-06T10:19:32.087Z,100945.66
2019-05-06T10:22:05.551Z,100938.05
2019-05-06T10:24:38.799Z,100941.94
2019-05-06T10:27:12.269Z,100939.47
2019-05-06T10:29:57.368Z,100949.88
2019-05-06T10:32:38.764Z,100940.25
2019-05-06T10:35:13.094Z,100939.91
2019-05-06T10:38:32.713Z,100944.16
2019-05-06T10:41:12.871Z,100949.14
2019-05-06T10:44:17.405Z,100948.45
2019-05-06T10:46:52.751Z,100947.16
2019-05-06T10:49:27.174Z,100943.59
2019-05-06T10:52:12.562Z,100944.11
2019-05-06T10:54:45.258Z,100942.91
2019-05-06T10:57:24.961Z,100947.34
2019-05-06T10:59:58.100Z,100942.44
2019-05-06T11:02:59.443Z,100952.73
2019-05-06T11:05:32.805Z,100946.83
2019-05-06T11:08:05.980Z,100952.69
2019-05-06T11:10:41.514Z,100951.59
2019-05-06T11:13:14.810Z,100956.46
2019-05-06T11:15:48.075Z,100949.55
2019-05-06T11:18:23.400Z,100947.96
2019-05-06T11:20:56.602Z,100947.96
2019-05-06T11:23:29.901Z,100950.11
2019-05-06T11:26:03.334Z,100950.94
2019-05-06T11:29:07.461Z,100951.17
2019-05-06T11:31:55.112Z,100950.38
2019-05-06T11:34:52.454Z,100950.56
2019-05-06T11:37:54.107Z,100949.58
2019-05-06T11:40:25.543Z,100953.08
2019-05-06T11:42:58.952Z,100953.81
2019-05-06T11:45:34.982Z,100955.44
2019-05-06T11:48:14.635Z,100957.59
2019-05-06T11:50:50.063Z,100956.89
2019-05-06T11:53:23.417Z,100951.75
2019-05-06T11:55:56.782Z,100951.69
2019-05-06T11:58:45.398Z,100962.79
2019-05-06T12:01:27.709Z,100956.97
2019-05-06T12:04:02.690Z,100959.98
2019-05-06T12:06:36.118Z,100960.14
2019-05-06T12:09:16.574Z,100965.86
2019-05-06T12:11:46.551Z,100961.69
2019-05-06T12:14:19.932Z,100958.91
2019-05-06T12:16:55.054Z,100966.75
2019-05-06T12:19:28.917Z,100950.02
2019-05-06T12:22:02.941Z,100951.72
2019-05-06T12:24:36.267Z,100958.48
2019-05-06T12:27:09.627Z,100945.10
2019-05-06T12:29:43.063Z,100951.56
2019-05-06T12:32:33.068Z,100950.62
2019-05-06T12:35:07.106Z,100941.01
2019-05-06T12:37:43.985Z,100936.09
2019-05-06T12:40:19.674Z,100934.93
2019-05-06T12:42:56.786Z,100944.09
2019-05-06T12:45:37.179Z,100943.66
2019-05-06T12:48:21.153Z,100942.27
2019-05-06T12:50:54.457Z,100935.95
2019-05-06T12:53:28.016Z,100932.45
2019-05-06T12:56:03.085Z,100934.07
2019-05-06T12:58:36.617Z,100930.86
2019-05-06T13:01:13.593Z,100930.04
2019-05-06T13:03:45.668Z,100929.59
2019-05-06T13:06:19.127Z,100918.11
2019-05-06T13:09:00.962Z,100915.83
2019-05-06T13:11:28.669Z,100919.94
2019-05-06T13:14:04.122Z,100917.89
2019-05-06T13:16:37.429Z,100907.41
2019-05-06T13:19:12.136Z,100910.58
2019-05-06T13:21:45.764Z,100897.45
2019-05-06T13:24:19.044Z,100895.83
2019-05-06T13:26:52.912Z,100892.61
2019-05-06T13:29:33.058Z,100899.39
2019-05-06T13:32:06.188Z,100890.02
2019-05-06T13:34:39.702Z,100886.05
2019-05-06T13:37:13.235Z,100895.80
2019-05-06T13:39:46.549Z,100887.22
2019-05-06T13:42:22.723Z,100884.07
2019-05-06T13:44:58.522Z,100879.91
2019-05-06T13:47:49.438Z,100886.20
2019-05-06T13:50:24.929Z,100876.33
2019-05-06T13:53:09.119Z,100875.75
2019-05-06T13:55:39.922Z,100874.56
2019-05-06T13:58:13.315Z,100870.93
2019-05-06T14:00:46.739Z,100862.62
2019-05-06T14:03:20.135Z,100861.91
2019-05-06T14:05:53.545Z,100868.15
2019-05-06T14:08:27.844Z,100870.62
2019-05-06T14:11:02.858Z,100869.34
2019-05-06T14:13:36.395Z,100880.13
2019-05-06T14:16:13.087Z,100865.70
2019-05-06T14:18:46.709Z,100866.64
2019-05-06T14:21:20.075Z,100874.08
2019-05-06T14:23:55.446Z,100866.08
2019-05-06T14:26:34.621Z,100880.14
2019-05-06T14:29:16.536Z,100879.67
2019-05-06T14:31:52.472Z,100877.69
2019-05-06T14:34:26.159Z,100872.58
2019-05-06T14:37:00.438Z,100882.67
2019-05-06T14:39:52.248Z,100878.59
2019-05-06T14:42:12.750Z,100873.09
2019-05-06T14:44:46.192Z,100868.06
2019-05-06T14:47:32.808Z,100879.25
2019-05-06T14:50:07.366Z,100875.15
2019-05-06T14:52:42.675Z,100876.80
2019-05-06T14:55:22.580Z,100873.00
2019-05-06T14:57:56.520Z,100863.97
2019-05-06T15:00:31.953Z,100875.19
2019-05-06T15:03:08.037Z,100873.86
2019-05-06T15:05:42.756Z,100883.29
2019-05-06T15:08:16.187Z,100886.13
2019-05-06T15:10:49.707Z,100880.83
2019-05-06T15:13:23.039Z,100880.80
2019-05-06T15:15:56.283Z,100885.73
2019-05-06T15:18:29.383Z,100886.41
2019-05-06T15:21:29.236Z,100887.73
2019-05-06T15:23:38.428Z,100888.33
2019-05-06T15:26:16.429Z,100881.64
2019-05-06T15:28:49.987Z,100875.90
2019-05-06T15:32:02.613Z,100882.94
2019-05-06T15:34:53.109Z,100896.73
2019-05-06T15:37:42.299Z,100890.45
2019-05-06T15:40:15.090Z,100885.23
2019-05-06T15:42:48.155Z,100893.80
2019-05-06T15:45:22.008Z,100902.78
2019-05-06T15:47:55.504Z,100898.19
2019-05-06T15:50:28.644Z,100895.98
2019-05-06T15:53:03.552Z,100898.11
2019-05-06T15:55:36.742Z,100900.95
2019-05-06T15:58:12.302Z,100895.38
2019-05-06T16:00:44.646Z,100885.00
2019-05-06T16:03:17.804Z,100890.30
2019-05-06T16:05:54.687Z,100890.19
2019-05-06T16:08:26.722Z,100898.95
2019-05-06T16:11:02.718Z,100890.26
2019-05-06T16:13:34.959Z,100897.13
2019-05-06T16:16:08.490Z,100899.19
2019-05-06T16:18:42.287Z,100892.95
2019-05-06T16:21:19.162Z,100903.34
2019-05-06T16:23:57.438Z,100899.26
2019-05-06T16:26:30.856Z,100896.27
2019-05-06T16:29:04.582Z,100897.72
2019-05-06T16:31:38.042Z,100902.02
2019-05-06T16:34:12.419Z,100899.69
2019-05-06T16:36:46.650Z,100906.17
2019-05-06T16:39:22.874Z,100904.33
2019-05-06T16:41:59.263Z,100895.49
2019-05-06T16:44:34.716Z,100896.61
2019-05-06T16:47:08.280Z,100894.34
2019-05-06T16:49:42.801Z,100898.30
2019-05-06T16:52:16.408Z,100900.05
2019-05-06T16:54:51.992Z,100899.48
2019-05-06T16:57:25.010Z,100897.30
2019-05-06T16:59:59.907Z,100900.40
2019-05-06T17:02:41.981Z,100896.72
2019-05-06T17:05:42.489Z,100898.22
2019-05-06T17:08:19.105Z,100900.38
2019-05-06T17:10:53.815Z,100905.80
2019-05-06T17:13:27.249Z,100905.50
2019-05-06T17:16:02.492Z,100908.84
2019-05-06T17:18:35.943Z,100909.52
2019-05-06T17:21:09.291Z,100902.41
2019-05-06T17:23:42.730Z,100907.69
2019-05-06T17:26:19.454Z,100904.30
2019-05-06T17:29:19.284Z,100907.09
2019-05-06T18:19:16.689Z,100943.52
2019-05-06T18:21:52.674Z,100949.82
2019-05-06T18:24:26.685Z,100957.50
2019-05-06T18:27:02.486Z,100931.05
2019-05-06T18:29:36.216Z,100954.70
2019-05-06T18:32:09.996Z,100961.44
2019-05-06T18:34:44.729Z,100961.55
2019-05-06T18:37:18.444Z,100973.70
2019-05-06T18:39:53.058Z,100965.94
2019-05-06T18:42:26.964Z,100976.59
2019-05-06T18:45:02.593Z,100978.45
2019-05-06T18:47:36.291Z,100982.97
2019-05-06T18:50:12.401Z,100987.84
2019-05-06T18:52:46.751Z,100991.88
2019-05-06T18:55:22.377Z,100992.05
2019-05-06T18:57:56.384Z,100964.36
2019-05-06T19:00:32.010Z,100998.29
2019-05-06T19:03:06.074Z,101001.47
2019-05-06T19:05:42.887Z,101003.66
2019-05-06T19:08:37.312Z,101005.92
2019-05-06T19:11:13.299Z,100966.91
2019-05-06T19:13:47.492Z,101013.63
2019-05-06T19:16:25.369Z,101012.53
2019-05-06T19:19:05.833Z,101013.08
2019-05-06T19:21:38.438Z,101021.56
2019-05-06T19:24:13.391Z,101022.63
2019-05-06T19:26:47.211Z,101019.13
2019-05-06T19:29:22.992Z,101018.28
2019-05-06T19:31:56.526Z,101019.18
2019-05-06T19:34:34.473Z,101023.19
2019-05-06T19:37:24.969Z,101017.89
2019-05-06T19:39:59.818Z,101014.84
2019-05-06T19:43:15.660Z,101013.94
2019-05-06T19:45:49.748Z,101020.11
2019-05-06T19:48:25.111Z,101014.44
2019-05-06T19:50:59.125Z,101015.31
2019-05-06T19:53:33.009Z,101011.89
2019-05-06T19:56:07.289Z,101017.14
2019-05-06T19:58:42.919Z,101017.73
2019-05-06T20:01:32.305Z,101017.34
2019-05-06T20:04:07.853Z,101016.95
2019-05-06T20:06:52.345Z,101017.88
2019-05-06T20:09:52.171Z,101017.95
2019-05-06T20:12:32.746Z,101018.34
2019-05-06T20:15:25.909Z,101021.03
2019-05-06T20:18:04.106Z,101018.00
2019-05-06T20:20:38.816Z,101022.00
2019-05-06T20:23:12.895Z,101018.47
2019-05-06T20:25:47.001Z,101019.38
2019-05-06T20:28:22.878Z,101017.20
2019-05-06T20:30:58.665Z,101015.48
2019-05-06T20:33:33.189Z,101018.53
2019-05-06T20:36:07.497Z,101009.83
2019-05-06T20:38:45.263Z,101018.19
2019-05-06T20:41:22.165Z,101016.45
2019-05-06T20:43:57.676Z,101023.48
2019-05-06T21:09:54.930Z,101020.13
2019-05-06T21:12:33.826Z,101022.80
2019-05-06T21:15:32.374Z,101025.44
2019-05-06T21:18:18.509Z,101033.44
2019-05-06T21:20:56.413Z,101030.85
2019-05-06T21:23:34.559Z,101024.33
2019-05-06T21:26:11.110Z,101027.81
2019-05-06T21:28:47.887Z,101025.23
2019-05-06T21:31:21.621Z,101029.14
2019-05-06T21:33:55.329Z,101023.89
2019-05-06T21:36:29.125Z,101026.97
2019-05-06T21:39:02.828Z,101026.97
2019-05-06T21:41:37.050Z,101027.02
2019-05-06T21:44:13.001Z,101027.43
2019-05-06T21:46:46.073Z,101029.23
2019-05-06T21:49:20.093Z,101021.81
2019-05-06T21:51:53.908Z,101024.48
2019-05-06T21:54:27.735Z,101028.89
2019-05-06T21:57:02.985Z,101023.68
2019-05-06T21:59:36.871Z,101025.03
2019-05-06T22:02:12.630Z,101022.00
2019-05-06T22:04:46.463Z,101018.92
2019-05-06T22:07:20.340Z,101027.25
2019-05-06T22:09:54.156Z,101021.14
2019-05-06T22:12:27.987Z,101011.53
2019-05-06T22:15:04.859Z,101010.27
2019-05-06T22:17:37.214Z,101017.73
2019-05-06T22:20:11.077Z,101014.29
2019-05-06T22:22:45.312Z,101016.09
2019-05-06T22:25:18.850Z,101012.61
2019-05-06T22:27:53.637Z,101007.80
2019-05-06T22:30:27.499Z,101003.45
2019-05-06T22:33:03.432Z,101006.08
2019-05-06T22:35:36.678Z,101006.11
2019-05-06T22:38:12.243Z,101003.49
2019-05-06T22:40:45.853Z,101003.91
2019-05-06T22:43:21.870Z,101004.35
2019-05-06T22:45:56.357Z,101000.41
2019-05-06T22:48:32.379Z,100997.79
2019-05-06T22:51:06.296Z,101003.05
2019-05-06T22:53:42.319Z,101002.63
2019-05-06T22:56:16.138Z,101002.22
2019-05-06T22:58:52.234Z,100996.10
2019-05-06T23:01:46.432Z,101001.36
2019-05-06T23:04:25.488Z,100993.52
2019-05-06T23:07:04.441Z,100996.66
2019-05-06T23:09:45.507Z,100995.77
2019-05-06T23:12:23.115Z,101001.08
2019-05-06T23:15:02.494Z,101005.05
2019-05-06T23:17:41.952Z,100996.35
2019-05-06T23:20:16.141Z,100998.11
2019-05-06T23:22:51.059Z,101005.16
2019-05-06T23:25:25.888Z,100999.48
2019-05-06T23:27:59.664Z,100999.54
2019-05-06T23:30:33.634Z,101009.17
2019-05-06T23:33:07.497Z,101007.41
2019-05-06T23:35:43.937Z,101003.53
2019-05-06T23:39:16.595Z,101006.60
2019-05-06T23:43:00.308Z,101000.93
2019-05-06T23:46:24.163Z,101005.31
2019-05-06T23:54:08.261Z,101002.33
2019-05-06T23:56:44.465Z,101006.73
2019-05-06T23:59:20.098Z,101018.12
